首页
METAR-TAF:

METAR-TAF

机场 :

仁川國際機場

仁川国际机场, 大韩民国

纬度: 37-28N, 经度: 126-27E, 海拔: 7米

当前天气观测

该预报发布于28分钟前的01:30 UTC
风速5节,风向东南,在南转南东之间变化
温度 16°C
湿度 45%
气压 1021 hPa
能見度: 8000

METAR: RKSI 220130Z 13005KT 100V160 8000 NSC 16/04 Q1021 NOSIG

时间: 10:58 (01:58 UTC)

预报

该预报发布于2小时和58分钟前的23:00 UTC
预报有效从22日的 00点(UTC)到 23日的 06点(UTC)
风速6节,风向南转南东
能见度10公里或以上
少量云层高于3000英尺
多云层高于15000英尺
成为
从 22日的 19点(UTC)到 22日的 20点(UTC)
风速6节,风向东南
能見度: 4200
少量云层高于1000英尺
多云层高于2500英尺
阴天层高于10000英尺
轻雾
成为
从 22日的 21点(UTC)到 22日的 22点(UTC)
风速10节,风向
小雨
成为
从 23日的 00点(UTC)到 23日的 01点(UTC)
风速10节,风向西南,有时为20节阵风
能見度: 6000
少量云层高于1000英尺
散云层高于3000英尺
多云层高于12000英尺
成为
从 23日的 02点(UTC)到 23日的 03点(UTC)
风速10节,风向西

TAF: RKSI 212300Z 2200/2306 16006KT 9999 FEW030 BKN150 TX18/2206Z TN12/2221Z TX19/2306Z BECMG 2219/2220 13006KT 4200 BR FEW010 BKN025 OVC100 BECMG 2221/2222 17010KT -RA BECMG 2300/2301 22010G20KT 6000 NSW FEW010 SCT030 BKN120 BECMG 2302/2303 28010KT NSC

超过4000个机场的气象观测和天气预报(METAR&TAF报告)。

可查询的气象台以黄色和红色小点在地图上表示。

将鼠标移到小点上方,可查看气象台名称。

然后点击查看天气观测和预报。

如需切换地图:点击带黑十字的绿色按钮放大地图;点击带横线的绿色按钮缩小地图;或者点击绿色箭头查看邻近地区的地图。


METAR-TAF: